Accueil
METAR-TAF:

METAR-TAF

Aéroports :

Angoulême, France

Aéroport international Angoulême-Cognac

latitude: 45-43-46N, longitude: 00-13-08E, altitude: 132 m

Observation

Le bulletin a été fait il y a 32 minutes, à 00:30 UTC
Vent 2 kt de ouest/nord-ouest
Température 11°C
Humidité 87%
Pression 1021 hPa
Visibilité: 8000 m

METAR: LFBU 240030Z AUTO 29002KT 8000 NSC 11/09 Q1021

Heure: 03:02 (01:02 UTC)

Prévision

Le bulletin a été fait il y a 8 heures et 2 minutes, à 17:00 UTC
Prévision valable du 23 à 18 UTC au 24 à 18 UTC
Vent 5 kt de ouest/nord-ouest
Visibilité 10 km ou plus
Nuages fragmentés à une hauteur de 3000 ft
Probabilité 30% :
Temporairement
du 24 à 02 UTC au 24 à 07 UTC
Visibilité: 0800 m
bancs de brouillard

TAF: LFBU 231700Z 2318/2418 30005KT 9999 BKN030 PROB30 TEMPO 2402/2407 0800 BCFG

Observations et prévisions météorologiques de plus de 4000 aéroports (messages METAR et TAF).

Les stations disponibles sont représentées par des disques jaunes et rouges sur la carte.

Passer la souris dessus pour voir le nom de la station.

Cliquer dessus pour voir les observations et prévisions météorologiques.

Pour changer de carte: cliquez sur les boutons verts avec une croix noire pour zoomer, sur le bouton vert avec un tiret pour effectuer un zoom arrière, ou sur les flèches vertes pour les cartes adjacentes.


METAR-TAF: